Time;durP1;ratioP1;P1;durP2;ratioP2;P2;SDS_P1;SDS_P2;PMS_P1;PMS_P2;Temp;Humidity;BMP_temperature;BMP_pressure;BME280_temperature;BME280_humidity;BME280_pressure;Samples;Min_cycle;Max_cycle;Signal;HPM_P1;HPM_P2
2022/08/23 00:01:27;;;;;;;;;1.00;1.00;;;;;;;;5016802;28;9582;-81
2022/08/23 00:03:59;;;;;;;;;1.00;1.00;;;;;;;;5017632;28;8883;-82
2022/08/23 00:06:28;;;;;;;;;1.00;1.00;;;;;;;;5032692;28;8891;-82
2022/08/23 00:08:55;;;;;;;;;1.00;1.00;;;;;;;;5018297;28;8868;-81
2022/08/23 00:11:28;;;;;;;;;1.75;1.75;;;;;;;;5016947;28;8888;-82
2022/08/23 00:13:56;;;;;;;;;2.25;1.00;;;;;;;;5020092;28;8995;-82
2022/08/23 00:16:23;;;;;;;;;1.00;1.00;;;;;;;;5019200;28;8852;-81
2022/08/23 00:18:51;;;;;;;;;0.00;0.00;;;;;;;;5017330;28;9764;-81
2022/08/23 00:21:19;;;;;;;;;0.75;0.75;;;;;;;;5016917;28;8872;-80
2022/08/23 00:23:47;;;;;;;;;1.00;1.00;;;;;;;;5016947;28;8902;-80
2022/08/23 00:26:14;;;;;;;;;1.00;1.00;;;;;;;;5019592;28;8905;-82
2022/08/23 00:28:41;;;;;;;;;2.00;0.00;;;;;;;;5019313;28;9680;-82
2022/08/23 00:31:09;;;;;;;;;1.00;1.00;;;;;;;;5019574;28;8821;-82
2022/08/23 00:33:36;;;;;;;;;1.25;1.25;;;;;;;;5019805;28;8864;-83
2022/08/23 00:36:04;;;;;;;;;3.25;2.00;;;;;;;;5018743;28;8865;-83
2022/08/23 00:38:33;;;;;;;;;1.00;1.00;;;;;;;;5020202;28;8852;-82
2022/08/23 00:41:00;;;;;;;;;2.00;2.00;;;;;;;;5017272;28;8882;-82
2022/08/23 00:49:13;;;;;;;;;1.00;1.00;;;;;;;;5008428;28;8856;-79
2022/08/23 00:51:45;;;;;;;;;1.00;1.00;;;;;;;;5019489;28;8889;-80
2022/08/23 00:54:15;;;;;;;;;1.00;1.00;;;;;;;;5018885;28;8856;-81
2022/08/23 00:56:43;;;;;;;;;1.00;1.00;;;;;;;;5018939;28;8888;-80
2022/08/23 00:59:10;;;;;;;;;1.00;1.00;;;;;;;;5006985;28;8883;-80
2022/08/23 01:01:38;;;;;;;;;1.00;1.00;;;;;;;;5018226;28;9668;-79
2022/08/23 01:04:06;;;;;;;;;1.00;1.00;;;;;;;;5017384;28;8884;-80
2022/08/23 01:06:38;;;;;;;;;1.00;1.00;;;;;;;;5017784;28;8899;-80
2022/08/23 01:09:09;;;;;;;;;1.00;1.00;;;;;;;;5024489;28;8857;-80
2022/08/23 01:11:42;;;;;;;;;0.25;0.25;;;;;;;;5024458;28;8898;-81
2022/08/23 01:14:15;;;;;;;;;0.00;0.00;;;;;;;;5018265;28;8888;-80
2022/08/23 01:16:46;;;;;;;;;0.75;0.75;;;;;;;;5024685;28;8852;-80
2022/08/23 01:19:19;;;;;;;;;1.00;1.00;;;;;;;;5021918;28;8896;-80
2022/08/23 01:21:53;;;;;;;;;1.00;1.00;;;;;;;;5022915;28;8998;-80
2022/08/23 01:24:21;;;;;;;;;1.00;1.00;;;;;;;;5019205;28;8884;-80
2022/08/23 01:26:49;;;;;;;;;1.75;1.75;;;;;;;;5022169;28;8877;-80
2022/08/23 01:29:17;;;;;;;;;0.00;0.00;;;;;;;;5020772;28;8863;-80
2022/08/23 01:31:44;;;;;;;;;0.00;0.00;;;;;;;;5020120;28;8846;-80
2022/08/23 01:34:16;;;;;;;;;1.00;1.00;;;;;;;;5021744;28;8877;-80
2022/08/23 01:36:43;;;;;;;;;0.75;0.75;;;;;;;;5022175;28;8852;-80
2022/08/23 01:39:11;;;;;;;;;1.00;1.00;;;;;;;;5020227;28;8867;-81
2022/08/23 01:41:42;;;;;;;;;1.00;1.00;;;;;;;;5021284;28;8910;-81
2022/08/23 01:44:10;;;;;;;;;0.00;0.00;;;;;;;;5010172;28;8889;-81
2022/08/23 01:46:37;;;;;;;;;0.75;0.75;;;;;;;;5020085;28;8930;-81
2022/08/23 01:49:05;;;;;;;;;1.00;1.00;;;;;;;;5022253;28;8927;-80
2022/08/23 01:51:33;;;;;;;;;0.00;0.00;;;;;;;;5018853;28;9597;-81
2022/08/23 01:54:00;;;;;;;;;1.00;1.00;;;;;;;;5021618;28;8861;-81
2022/08/23 01:56:28;;;;;;;;;1.00;1.00;;;;;;;;5022270;28;8862;-82
2022/08/23 01:58:58;;;;;;;;;1.00;1.00;;;;;;;;5022437;28;8888;-82
2022/08/23 02:01:26;;;;;;;;;0.75;0.75;;;;;;;;5019575;28;8820;-81
2022/08/23 02:03:54;;;;;;;;;1.00;1.00;;;;;;;;5021559;28;8895;-81
2022/08/23 02:06:21;;;;;;;;;1.00;1.00;;;;;;;;5021561;28;8939;-80
2022/08/23 02:09:01;;;;;;;;;1.00;1.00;;;;;;;;5020090;28;8949;-81
2022/08/23 02:11:30;;;;;;;;;1.00;1.00;;;;;;;;5021148;28;8900;-81
2022/08/23 02:14:01;;;;;;;;;1.00;1.00;;;;;;;;5020438;28;8938;-81
2022/08/23 02:16:30;;;;;;;;;1.00;1.00;;;;;;;;5019104;28;8871;-81
2022/08/23 02:18:58;;;;;;;;;1.00;1.00;;;;;;;;5021102;28;9760;-82
2022/08/23 02:21:26;;;;;;;;;0.25;0.25;;;;;;;;5022192;28;8873;-81
2022/08/23 02:23:53;;;;;;;;;1.00;1.00;;;;;;;;5023109;28;8871;-82
2022/08/23 02:26:20;;;;;;;;;0.75;0.75;;;;;;;;5019374;28;8868;-82
2022/08/23 02:28:51;;;;;;;;;0.25;0.25;;;;;;;;5020379;28;8893;-79
2022/08/23 02:31:20;;;;;;;;;0.75;0.75;;;;;;;;5022581;28;8813;-82
2022/08/23 02:33:48;;;;;;;;;2.00;1.00;;;;;;;;5020530;28;8999;-82
2022/08/23 02:36:15;;;;;;;;;1.00;1.00;;;;;;;;5020993;28;8892;-82
2022/08/23 02:38:43;;;;;;;;;1.00;1.00;;;;;;;;5021263;28;8893;-82
2022/08/23 02:41:11;;;;;;;;;1.00;1.00;;;;;;;;5007032;28;8903;-82
2022/08/23 02:43:39;;;;;;;;;4.25;1.00;;;;;;;;5022319;28;9479;-81
2022/08/23 02:46:06;;;;;;;;;2.00;2.00;;;;;;;;5022127;28;8860;-82
2022/08/23 02:48:36;;;;;;;;;1.00;1.00;;;;;;;;5023138;28;8853;-82
2022/08/23 02:51:06;;;;;;;;;1.50;0.25;;;;;;;;5019626;28;8864;-82
2022/08/23 02:53:34;;;;;;;;;3.00;1.00;;;;;;;;5022685;28;8880;-81
2022/08/23 02:56:02;;;;;;;;;1.00;1.00;;;;;;;;5005348;28;8877;-83
2022/08/23 02:58:29;;;;;;;;;1.00;1.00;;;;;;;;5022225;28;9016;-83
2022/08/23 03:00:57;;;;;;;;;1.00;1.00;;;;;;;;5022001;28;8843;-83
2022/08/23 03:03:25;;;;;;;;;1.00;1.00;;;;;;;;5022448;28;8877;-82
2022/08/23 03:05:55;;;;;;;;;1.00;1.00;;;;;;;;5023225;28;8845;-83
2022/08/23 03:08:24;;;;;;;;;0.25;0.25;;;;;;;;5020257;28;8995;-82
2022/08/23 03:10:52;;;;;;;;;1.00;1.00;;;;;;;;5019365;28;8908;-81
2022/08/23 03:13:20;;;;;;;;;1.00;1.00;;;;;;;;5020886;28;8893;-81
2022/08/23 03:15:48;;;;;;;;;1.00;1.00;;;;;;;;5022883;28;8901;-81
2022/08/23 03:18:16;;;;;;;;;1.00;1.00;;;;;;;;5022862;28;9000;-80
2022/08/23 03:20:43;;;;;;;;;1.00;1.00;;;;;;;;5024404;28;8877;-81
2022/08/23 03:23:12;;;;;;;;;1.00;1.00;;;;;;;;5024826;28;8872;-80
2022/08/23 03:25:40;;;;;;;;;1.75;1.75;;;;;;;;5022356;28;8888;-79
2022/08/23 03:28:08;;;;;;;;;0.75;0.75;;;;;;;;5005193;28;8875;-80
2022/08/23 03:30:36;;;;;;;;;2.00;2.00;;;;;;;;5003903;28;8797;-81
2022/08/23 03:33:04;;;;;;;;;1.50;1.50;;;;;;;;5022824;28;8884;-83
2022/08/23 03:35:32;;;;;;;;;3.75;1.00;;;;;;;;5020696;28;8893;-82
2022/08/23 03:37:59;;;;;;;;;2.00;2.00;;;;;;;;5018012;28;8947;-83
2022/08/23 03:40:28;;;;;;;;;1.25;1.25;;;;;;;;5007521;28;8877;-83
2022/08/23 03:42:55;;;;;;;;;1.25;1.25;;;;;;;;5021160;28;8864;-82
2022/08/23 03:45:22;;;;;;;;;2.75;2.75;;;;;;;;5003536;28;8883;-83
2022/08/23 03:47:50;;;;;;;;;3.00;1.00;;;;;;;;5019742;28;8877;-83
2022/08/23 03:50:17;;;;;;;;;3.50;1.50;;;;;;;;5021399;28;8876;-83
2022/08/23 03:52:45;;;;;;;;;2.00;2.00;;;;;;;;5019423;28;8868;-81
2022/08/23 03:55:13;;;;;;;;;2.00;2.00;;;;;;;;5021751;28;8876;-82
2022/08/23 03:57:42;;;;;;;;;1.00;1.00;;;;;;;;5014646;28;8902;-82
2022/08/23 04:00:11;;;;;;;;;3.75;3.00;;;;;;;;5020144;28;8873;-79
2022/08/23 04:02:39;;;;;;;;;1.00;1.00;;;;;;;;5020408;28;9000;-82
2022/08/23 04:05:09;;;;;;;;;2.50;1.00;;;;;;;;5018033;28;8915;-82
2022/08/23 04:07:37;;;;;;;;;2.25;2.00;;;;;;;;5020247;28;8881;-81
2022/08/23 04:10:06;;;;;;;;;2.75;1.50;;;;;;;;5019199;28;8861;-81
2022/08/23 04:12:33;;;;;;;;;1.50;1.50;;;;;;;;5019942;28;8878;-81
2022/08/23 04:15:05;;;;;;;;;1.00;1.00;;;;;;;;5019571;28;8856;-81
2022/08/23 04:17:32;;;;;;;;;2.25;2.25;;;;;;;;5016067;28;8876;-81
2022/08/23 04:20:00;;;;;;;;;4.00;2.00;;;;;;;;5000492;28;9005;-81
2022/08/23 04:22:27;;;;;;;;;3.00;2.00;;;;;;;;5019434;28;8868;-82
2022/08/23 04:24:55;;;;;;;;;3.00;3.00;;;;;;;;5020960;28;8876;-82
2022/08/23 04:27:23;;;;;;;;;1.00;1.00;;;;;;;;5019201;28;10475;-82
2022/08/23 04:29:50;;;;;;;;;3.00;3.00;;;;;;;;5020978;28;8885;-82
2022/08/23 04:32:19;;;;;;;;;3.50;2.00;;;;;;;;5004554;28;8840;-82
2022/08/23 04:34:50;;;;;;;;;2.75;2.75;;;;;;;;5016763;28;8869;-82
2022/08/23 04:37:17;;;;;;;;;1.75;1.75;;;;;;;;5017086;28;8875;-83
2022/08/23 04:42:30;;;;;;;;;3.00;3.00;;;;;;;;5024186;28;8856;-82
2022/08/23 04:44:58;;;;;;;;;1.00;1.00;;;;;;;;5007419;28;8857;-82
2022/08/23 04:47:26;;;;;;;;;3.50;2.25;;;;;;;;5023488;28;8954;-82
2022/08/23 04:49:54;;;;;;;;;2.25;2.25;;;;;;;;5021906;28;8909;-83
2022/08/23 04:52:21;;;;;;;;;1.00;1.00;;;;;;;;5022854;28;9239;-82
2022/08/23 04:54:48;;;;;;;;;1.25;1.25;;;;;;;;5021471;28;8860;-81
2022/08/23 04:57:15;;;;;;;;;2.00;2.00;;;;;;;;5024488;28;8897;-83
2022/08/23 04:59:43;;;;;;;;;1.25;1.25;;;;;;;;5021396;28;8983;-81
2022/08/23 05:02:11;;;;;;;;;3.50;3.50;;;;;;;;5022084;28;8817;-81
2022/08/23 05:04:41;;;;;;;;;2.00;2.00;;;;;;;;5023186;28;8859;-81
2022/08/23 05:07:08;;;;;;;;;2.00;2.00;;;;;;;;5007900;28;8880;-83
2022/08/23 05:09:35;;;;;;;;;2.00;2.00;;;;;;;;5022512;28;8881;-81
2022/08/23 05:12:03;;;;;;;;;2.00;2.00;;;;;;;;5024573;28;8873;-82
2022/08/23 05:14:30;;;;;;;;;2.20;2.20;;;;;;;;5021330;28;8889;-83
2022/08/23 05:16:57;;;;;;;;;3.00;3.00;;;;;;;;5022381;28;8872;-81
2022/08/23 05:19:25;;;;;;;;;2.00;2.00;;;;;;;;5019690;28;8853;-82
2022/08/23 05:21:53;;;;;;;;;2.20;2.20;;;;;;;;5025753;28;9008;-77
2022/08/23 05:24:21;;;;;;;;;1.80;1.80;;;;;;;;5003470;28;8885;-77
2022/08/23 05:26:48;;;;;;;;;1.20;1.20;;;;;;;;4992924;28;8893;-78
2022/08/23 05:29:15;;;;;;;;;2.00;2.00;;;;;;;;5023148;28;8864;-77
2022/08/23 05:31:42;;;;;;;;;3.00;1.20;;;;;;;;5023928;28;8853;-77
2022/08/23 05:34:10;;;;;;;;;2.20;1.80;;;;;;;;5007770;28;8881;-78
2022/08/23 05:36:37;;;;;;;;;3.00;1.60;;;;;;;;5023370;28;8860;-78
2022/08/23 05:39:09;;;;;;;;;2.40;2.40;;;;;;;;5022246;28;8869;-78
2022/08/23 05:41:38;;;;;;;;;1.60;1.60;;;;;;;;5021792;28;8890;-77
2022/08/23 05:44:06;;;;;;;;;1.60;1.60;;;;;;;;5021657;28;9780;-79
2022/08/23 05:46:33;;;;;;;;;1.00;1.00;;;;;;;;5022682;28;8860;-79
2022/08/23 05:49:01;;;;;;;;;2.00;2.00;;;;;;;;5023547;28;8863;-78
2022/08/23 05:51:31;;;;;;;;;2.20;2.20;;;;;;;;5022654;28;8889;-77
2022/08/23 05:54:00;;;;;;;;;2.20;2.20;;;;;;;;5019311;28;8891;-78
2022/08/23 05:56:30;;;;;;;;;2.00;2.00;;;;;;;;5016651;28;8880;-75
2022/08/23 05:58:59;;;;;;;;;2.00;1.80;;;;;;;;5020283;28;8881;-72
2022/08/23 06:01:28;;;;;;;;;1.00;1.00;;;;;;;;5018575;28;8939;-74
2022/08/23 06:03:55;;;;;;;;;2.00;2.00;;;;;;;;5021975;28;8913;-74
2022/08/23 06:06:22;;;;;;;;;2.00;2.00;;;;;;;;5007329;28;8881;-74
2022/08/23 06:08:49;;;;;;;;;2.80;2.80;;;;;;;;5020870;28;8980;-76
2022/08/23 06:11:19;;;;;;;;;2.00;2.00;;;;;;;;5006423;28;8906;-76
2022/08/23 06:13:50;;;;;;;;;3.00;3.00;;;;;;;;5019070;28;8849;-76
2022/08/23 06:16:19;;;;;;;;;2.00;2.00;;;;;;;;5020247;28;8946;-74
2022/08/23 06:18:47;;;;;;;;;2.40;2.40;;;;;;;;5021637;28;8949;-75
2022/08/23 06:21:15;;;;;;;;;2.00;2.00;;;;;;;;5021915;28;8951;-74
2022/08/23 06:23:45;;;;;;;;;3.40;2.00;;;;;;;;5023789;28;8888;-76
2022/08/23 06:26:13;;;;;;;;;3.00;3.00;;;;;;;;5015306;28;8861;-72
2022/08/23 06:28:42;;;;;;;;;2.00;2.00;;;;;;;;5019231;28;8890;-74
2022/08/23 06:31:10;;;;;;;;;2.40;2.40;;;;;;;;5019846;28;8825;-74
2022/08/23 06:33:41;;;;;;;;;3.40;1.80;;;;;;;;5014656;28;8904;-74
2022/08/23 06:36:10;;;;;;;;;2.40;2.40;;;;;;;;5017639;28;10149;-75
2022/08/23 06:38:39;;;;;;;;;2.40;2.40;;;;;;;;5001653;28;8969;-75
2022/08/23 06:41:09;;;;;;;;;1.80;1.80;;;;;;;;5018625;28;8892;-77
2022/08/23 06:43:37;;;;;;;;;3.00;3.00;;;;;;;;5020100;28;8880;-76
2022/08/23 06:46:15;;;;;;;;;2.00;2.00;;;;;;;;5018673;28;8874;-77
2022/08/23 06:48:43;;;;;;;;;2.00;2.00;;;;;;;;5019726;28;8887;-77
2022/08/23 06:51:12;;;;;;;;;3.80;2.80;;;;;;;;5015198;28;8889;-78
2022/08/23 06:53:40;;;;;;;;;2.00;2.00;;;;;;;;5021834;28;9673;-75
2022/08/23 06:56:08;;;;;;;;;4.60;3.00;;;;;;;;5022197;28;8877;-76
2022/08/23 06:58:35;;;;;;;;;2.60;2.40;;;;;;;;5018215;28;8886;-75
2022/08/23 07:01:12;;;;;;;;;1.00;0.00;;;;;;;;5019784;28;8863;-74
2022/08/23 07:03:39;;;;;;;;;2.60;2.60;;;;;;;;5018882;28;9747;-74
2022/08/23 07:06:08;;;;;;;;;2.00;2.00;;;;;;;;5022251;28;8881;-74
2022/08/23 07:08:35;;;;;;;;;2.00;2.00;;;;;;;;5019803;28;8865;-75
2022/08/23 07:11:02;;;;;;;;;3.00;3.00;;;;;;;;5020334;28;8875;-75
2022/08/23 07:13:30;;;;;;;;;4.00;3.00;;;;;;;;5021485;28;8880;-74
2022/08/23 07:16:01;;;;;;;;;1.20;1.00;;;;;;;;5020656;28;8999;-74
2022/08/23 07:18:30;;;;;;;;;3.20;2.00;;;;;;;;5022049;28;8900;-74
2022/08/23 07:20:58;;;;;;;;;2.20;2.20;;;;;;;;5020996;28;8893;-74
2022/08/23 07:23:26;;;;;;;;;1.80;1.80;;;;;;;;5022016;28;8869;-75
2022/08/23 07:25:54;;;;;;;;;3.20;3.20;;;;;;;;5020019;28;8872;-74
2022/08/23 07:28:21;;;;;;;;;2.00;2.00;;;;;;;;5005902;28;8915;-74
2022/08/23 07:30:48;;;;;;;;;3.40;2.40;;;;;;;;5020956;28;8820;-74
2022/08/23 07:33:16;;;;;;;;;2.00;2.00;;;;;;;;5022527;28;8881;-74
2022/08/23 07:35:52;;;;;;;;;2.00;2.00;;;;;;;;5022277;28;8885;-75
2022/08/23 07:38:19;;;;;;;;;1.60;1.60;;;;;;;;5018834;28;8927;-75
2022/08/23 07:40:47;;;;;;;;;2.00;2.00;;;;;;;;5012655;28;8876;-75
2022/08/23 07:43:15;;;;;;;;;2.00;2.00;;;;;;;;5020375;28;8865;-75
2022/08/23 07:45:44;;;;;;;;;2.60;1.40;;;;;;;;5021086;28;8862;-76
2022/08/23 07:48:11;;;;;;;;;1.60;1.60;;;;;;;;5017016;28;8873;-76
2022/08/23 07:50:39;;;;;;;;;1.80;1.80;;;;;;;;5021177;28;8878;-75
2022/08/23 07:53:08;;;;;;;;;3.00;3.00;;;;;;;;5021540;28;8886;-76
2022/08/23 07:55:38;;;;;;;;;2.40;2.40;;;;;;;;5021288;28;8994;-76
2022/08/23 07:58:06;;;;;;;;;2.40;2.40;;;;;;;;5020862;28;8837;-75
2022/08/23 08:00:36;;;;;;;;;2.60;2.40;;;;;;;;5017340;28;8817;-75
2022/08/23 08:03:03;;;;;;;;;3.00;3.00;;;;;;;;5022042;28;8926;-76
2022/08/23 08:05:32;;;;;;;;;1.80;1.80;;;;;;;;5020927;28;8890;-75
2022/08/23 08:08:02;;;;;;;;;4.00;2.80;;;;;;;;5019499;28;8872;-76
2022/08/23 08:10:32;;;;;;;;;2.60;2.60;;;;;;;;5021543;28;8867;-76
2022/08/23 08:12:59;;;;;;;;;4.80;2.00;;;;;;;;5007726;28;8877;-76
2022/08/23 08:15:26;;;;;;;;;2.20;2.20;;;;;;;;5021531;28;8890;-75
2022/08/23 08:17:53;;;;;;;;;3.40;1.60;;;;;;;;5022849;28;8893;-76
2022/08/23 08:20:22;;;;;;;;;2.40;2.40;;;;;;;;5025461;28;10163;-76
2022/08/23 08:22:49;;;;;;;;;1.00;1.00;;;;;;;;5024617;28;8875;-76
2022/08/23 08:25:16;;;;;;;;;1.00;1.00;;;;;;;;5025253;28;8977;-76
2022/08/23 08:27:45;;;;;;;;;1.60;1.60;;;;;;;;5023296;28;8869;-84
2022/08/23 08:30:13;;;;;;;;;1.40;1.00;;;;;;;;5022533;28;8880;-78
2022/08/23 08:32:42;;;;;;;;;2.60;2.60;;;;;;;;5025481;28;8859;-81
2022/08/23 08:35:10;;;;;;;;;1.00;1.00;;;;;;;;5008066;28;8896;-74
2022/08/23 08:37:38;;;;;;;;;2.00;2.00;;;;;;;;5024879;28;9650;-76
2022/08/23 08:40:07;;;;;;;;;1.40;1.40;;;;;;;;5007001;28;8896;-80
2022/08/23 08:42:51;;;;;;;;;2.80;1.80;;;;;;;;5024810;28;8889;-77
2022/08/23 08:45:23;;;;;;;;;3.40;1.80;;;;;;;;5023424;28;8845;-76
2022/08/23 08:47:54;;;;;;;;;2.60;1.20;;;;;;;;5022860;28;8875;-78
2022/08/23 08:50:25;;;;;;;;;1.20;1.20;;;;;;;;5022231;28;8871;-75
2022/08/23 08:52:57;;;;;;;;;1.60;1.60;;;;;;;;5007731;28;8937;-78
2022/08/23 08:55:27;;;;;;;;;1.00;1.00;;;;;;;;5019530;28;8869;-81
2022/08/23 08:57:57;;;;;;;;;1.00;1.00;;;;;;;;5020482;28;8837;-75
2022/08/23 09:00:26;;;;;;;;;1.00;1.00;;;;;;;;5022942;28;8872;-73
2022/08/23 09:02:54;;;;;;;;;1.00;1.00;;;;;;;;5024585;28;8964;-74
2022/08/23 09:05:25;;;;;;;;;2.80;1.40;;;;;;;;5022640;28;8868;-74
2022/08/23 09:08:02;;;;;;;;;1.20;0.80;;;;;;;;5021901;28;8864;-74
2022/08/23 09:10:49;;;;;;;;;1.60;1.20;;;;;;;;5020848;28;8880;-73
2022/08/23 09:13:58;;;;;;;;;1.80;1.80;;;;;;;;5023620;28;8883;-74
2022/08/23 09:16:40;;;;;;;;;1.80;1.60;;;;;;;;4957176;28;9653;-73
2022/08/23 09:19:08;;;;;;;;;4.00;3.00;;;;;;;;5020012;28;8884;-74
2022/08/23 09:21:43;;;;;;;;;2.00;2.00;;;;;;;;5024156;28;8881;-74
2022/08/23 09:24:10;;;;;;;;;4.00;2.80;;;;;;;;5021325;28;8970;-74
2022/08/23 09:26:37;;;;;;;;;2.80;2.20;;;;;;;;5023118;28;8887;-74
2022/08/23 09:29:13;;;;;;;;;1.40;1.40;;;;;;;;5021880;28;8845;-73
2022/08/23 09:31:46;;;;;;;;;1.40;1.40;;;;;;;;5020464;28;8792;-77
2022/08/23 09:34:18;;;;;;;;;1.00;1.00;;;;;;;;5023046;28;8987;-76
2022/08/23 09:36:46;;;;;;;;;1.60;1.00;;;;;;;;5022785;28;8945;-76
2022/08/23 09:39:30;;;;;;;;;1.80;1.80;;;;;;;;5024303;28;9043;-77
2022/08/23 09:41:58;;;;;;;;;1.80;1.80;;;;;;;;5022796;28;8852;-80
2022/08/23 09:44:35;;;;;;;;;2.80;1.00;;;;;;;;5022622;28;8868;-79
2022/08/23 09:47:11;;;;;;;;;0.00;0.00;;;;;;;;5024443;28;8856;-77
2022/08/23 09:49:40;;;;;;;;;2.00;0.00;;;;;;;;5025397;28;8979;-79
2022/08/23 09:52:22;;;;;;;;;2.00;2.00;;;;;;;;5026617;28;8873;-79
2022/08/23 09:54:58;;;;;;;;;2.20;2.20;;;;;;;;5020280;28;8856;-79
2022/08/23 09:57:27;;;;;;;;;3.00;1.00;;;;;;;;5021036;28;8927;-83
2022/08/23 09:59:56;;;;;;;;;1.00;1.00;;;;;;;;5020712;28;8867;-81
2022/08/23 10:02:29;;;;;;;;;2.00;2.00;;;;;;;;5021527;28;8817;-79
2022/08/23 10:05:00;;;;;;;;;1.40;1.40;;;;;;;;5022925;28;8885;-81
2022/08/23 10:07:37;;;;;;;;;1.00;1.00;;;;;;;;5021666;28;8948;-79
2022/08/23 10:10:17;;;;;;;;;0.00;0.00;;;;;;;;5021823;28;8989;-81
2022/08/23 10:12:45;;;;;;;;;1.20;1.20;;;;;;;;5022814;28;8906;-79
2022/08/23 10:15:13;;;;;;;;;2.00;0.80;;;;;;;;5020043;28;9548;-81
2022/08/23 10:17:47;;;;;;;;;1.20;1.20;;;;;;;;5025190;28;8908;-81
2022/08/23 10:20:21;;;;;;;;;0.00;0.00;;;;;;;;5018435;28;8888;-82
2022/08/23 10:22:54;;;;;;;;;3.80;1.80;;;;;;;;5022149;28;8913;-80
2022/08/23 10:25:26;;;;;;;;;1.00;1.00;;;;;;;;5019180;28;9649;-80
2022/08/23 10:30:54;;;;;;;;;0.40;0.40;;;;;;;;5022420;28;8800;-79
2022/08/23 10:33:30;;;;;;;;;1.60;1.60;;;;;;;;5022697;28;8923;-84
2022/08/23 10:36:07;;;;;;;;;0.00;0.00;;;;;;;;5022459;28;8996;-79
2022/08/23 10:38:41;;;;;;;;;1.40;1.40;;;;;;;;5021421;28;8861;-81
2022/08/23 10:41:31;;;;;;;;;1.00;1.00;;;;;;;;5020283;28;8903;-81
2022/08/23 10:44:08;;;;;;;;;0.00;0.00;;;;;;;;5016932;28;8849;-79
2022/08/23 10:46:42;;;;;;;;;1.20;1.20;;;;;;;;5019136;28;8889;-81
2022/08/23 10:49:13;;;;;;;;;0.00;0.00;;;;;;;;5019884;28;9046;-80
2022/08/23 10:51:43;;;;;;;;;0.60;0.60;;;;;;;;5019822;28;8882;-82
2022/08/23 10:54:17;;;;;;;;;0.60;0.60;;;;;;;;5019413;28;8934;-81
2022/08/23 10:56:45;;;;;;;;;0.40;0.40;;;;;;;;5020097;28;8865;-79
2022/08/23 10:59:16;;;;;;;;;0.00;0.00;;;;;;;;5018675;28;9696;-81
2022/08/23 11:01:49;;;;;;;;;0.60;0.60;;;;;;;;5020788;28;8833;-81
2022/08/23 11:04:24;;;;;;;;;0.00;0.00;;;;;;;;5003856;28;8903;-80
2022/08/23 11:06:52;;;;;;;;;2.60;2.60;;;;;;;;5003375;28;8892;-79
2022/08/23 11:10:04;;;;;;;;;0.20;0.20;;;;;;;;5020525;28;8848;-82
2022/08/23 11:12:35;;;;;;;;;0.20;0.20;;;;;;;;5020320;28;8888;-84
2022/08/23 11:15:19;;;;;;;;;0.00;0.00;;;;;;;;5017485;28;8954;-81
2022/08/23 11:18:04;;;;;;;;;0.00;0.00;;;;;;;;5018382;28;8861;-83
2022/08/23 11:21:17;;;;;;;;;0.00;0.00;;;;;;;;5018580;28;8880;-83
2022/08/23 11:23:52;;;;;;;;;0.00;0.00;;;;;;;;4976000;28;8892;-80
2022/08/23 11:27:05;;;;;;;;;0.00;0.00;;;;;;;;5019140;28;8873;-84
2022/08/23 11:29:35;;;;;;;;;0.00;0.00;;;;;;;;5016525;28;8888;-81
2022/08/23 11:32:11;;;;;;;;;0.00;0.00;;;;;;;;5020394;28;8797;-81
2022/08/23 11:34:44;;;;;;;;;0.00;0.00;;;;;;;;5019811;28;8914;-81
2022/08/23 11:37:28;;;;;;;;;0.00;0.00;;;;;;;;5019546;28;8906;-81
2022/08/23 11:40:08;;;;;;;;;0.00;0.00;;;;;;;;5018293;28;8898;-80
2022/08/23 11:42:49;;;;;;;;;0.00;0.00;;;;;;;;5018787;28;8871;-82
2022/08/23 11:45:27;;;;;;;;;0.00;0.00;;;;;;;;5020082;28;8965;-82
2022/08/23 11:48:12;;;;;;;;;0.00;0.00;;;;;;;;5020078;28;8934;-79
2022/08/23 11:51:04;;;;;;;;;0.00;0.00;;;;;;;;5018927;28;8867;-80
2022/08/23 11:53:54;;;;;;;;;0.00;0.00;;;;;;;;5018546;28;9707;-80
2022/08/23 11:56:42;;;;;;;;;0.00;0.00;;;;;;;;5019918;28;8821;-79
2022/08/23 11:59:40;;;;;;;;;0.00;0.00;;;;;;;;5016089;28;8919;-79
2022/08/23 12:02:30;;;;;;;;;0.00;0.00;;;;;;;;5002712;28;8836;-80
2022/08/23 12:04:59;;;;;;;;;0.00;0.00;;;;;;;;5019872;28;8884;-80
2022/08/23 12:07:45;;;;;;;;;0.00;0.00;;;;;;;;5020774;28;8913;-81
2022/08/23 12:10:16;;;;;;;;;0.00;0.00;;;;;;;;5019500;28;8895;-81
2022/08/23 12:12:45;;;;;;;;;0.00;0.00;;;;;;;;5020312;28;8908;-80
2022/08/23 12:15:13;;;;;;;;;0.80;0.00;;;;;;;;5020233;28;8880;-80
2022/08/23 12:18:10;;;;;;;;;0.00;0.00;;;;;;;;5019555;28;9665;-80
2022/08/23 12:20:37;;;;;;;;;0.00;0.00;;;;;;;;5021418;28;8891;-81
2022/08/23 12:23:21;;;;;;;;;0.00;0.00;;;;;;;;5020984;28;8868;-80
2022/08/23 12:26:00;;;;;;;;;0.00;0.00;;;;;;;;5019603;28;8889;-80
2022/08/23 12:28:44;;;;;;;;;0.00;0.00;;;;;;;;5020998;28;8890;-81
2022/08/23 12:31:23;;;;;;;;;0.00;0.00;;;;;;;;5019288;28;8833;-82
2022/08/23 12:34:00;;;;;;;;;0.00;0.00;;;;;;;;5008689;28;8904;-80
2022/08/23 12:36:33;;;;;;;;;0.00;0.00;;;;;;;;5019904;28;9619;-81
2022/08/23 12:39:06;;;;;;;;;0.00;0.00;;;;;;;;5018479;28;8884;-80
2022/08/23 12:41:43;;;;;;;;;0.00;0.00;;;;;;;;5021170;28;8841;-80
2022/08/23 12:44:18;;;;;;;;;0.00;0.00;;;;;;;;5017507;28;8888;-80
2022/08/23 12:46:47;;;;;;;;;0.00;0.00;;;;;;;;5016293;28;9290;-80
2022/08/23 12:49:25;;;;;;;;;0.00;0.00;;;;;;;;5018745;28;8893;-80
2022/08/23 12:51:55;;;;;;;;;0.00;0.00;;;;;;;;5017422;28;8916;-76
2022/08/23 12:54:31;;;;;;;;;0.00;0.00;;;;;;;;5013669;28;8900;-77
2022/08/23 12:57:08;;;;;;;;;0.00;0.00;;;;;;;;5018533;28;8881;-77
2022/08/23 12:59:40;;;;;;;;;0.00;0.00;;;;;;;;5018107;28;8903;-77
2022/08/23 13:02:12;;;;;;;;;0.00;0.00;;;;;;;;5015669;28;8808;-77
2022/08/23 13:04:41;;;;;;;;;0.00;0.00;;;;;;;;5020766;28;8877;-78
2022/08/23 13:07:15;;;;;;;;;0.00;0.00;;;;;;;;4994671;28;8880;-77
2022/08/23 13:09:43;;;;;;;;;0.00;0.00;;;;;;;;5020942;28;10465;-77
2022/08/23 13:12:11;;;;;;;;;0.20;0.00;;;;;;;;5009367;28;8900;-77
2022/08/23 13:14:46;;;;;;;;;0.00;0.00;;;;;;;;5017168;28;8873;-76
2022/08/23 13:17:18;;;;;;;;;0.00;0.00;;;;;;;;5010095;28;8899;-78
2022/08/23 13:19:46;;;;;;;;;0.00;0.00;;;;;;;;5021106;28;8980;-77
2022/08/23 13:22:22;;;;;;;;;0.00;0.00;;;;;;;;5021080;28;8874;-77
2022/08/23 13:25:09;;;;;;;;;0.00;0.00;;;;;;;;5020422;28;8852;-78
2022/08/23 13:27:50;;;;;;;;;0.00;0.00;;;;;;;;5018933;28;9378;-78
2022/08/23 13:30:25;;;;;;;;;0.00;0.00;;;;;;;;5018288;28;8896;-77
2022/08/23 13:33:17;;;;;;;;;0.20;0.00;;;;;;;;5012760;28;8880;-77
2022/08/23 13:35:46;;;;;;;;;0.00;0.00;;;;;;;;5020973;28;8986;-77
2022/08/23 13:38:20;;;;;;;;;0.00;0.00;;;;;;;;5021852;28;8873;-77
2022/08/23 13:40:56;;;;;;;;;0.00;0.00;;;;;;;;5014334;28;8848;-79
2022/08/23 13:43:27;;;;;;;;;0.00;0.00;;;;;;;;5017571;28;8888;-79
2022/08/23 13:45:57;;;;;;;;;0.00;0.00;;;;;;;;5018237;28;8864;-80
2022/08/23 13:48:27;;;;;;;;;0.00;0.00;;;;;;;;5017667;28;9650;-77
2022/08/23 13:50:55;;;;;;;;;0.00;0.00;;;;;;;;5018776;28;8920;-78
2022/08/23 13:53:22;;;;;;;;;0.00;0.00;;;;;;;;5015606;28;8890;-78
2022/08/23 13:55:53;;;;;;;;;0.00;0.00;;;;;;;;5018964;28;8864;-78
2022/08/23 13:58:27;;;;;;;;;0.00;0.00;;;;;;;;5018334;28;8895;-78
2022/08/23 14:00:57;;;;;;;;;0.00;0.00;;;;;;;;5018312;28;8806;-78
2022/08/23 14:03:26;;;;;;;;;0.00;0.00;;;;;;;;5021382;28;9322;-78
2022/08/23 14:05:54;;;;;;;;;0.00;0.00;;;;;;;;5014310;28;8993;-78
2022/08/23 14:08:22;;;;;;;;;0.00;0.00;;;;;;;;5007730;28;8885;-78
2022/08/23 14:10:50;;;;;;;;;0.00;0.00;;;;;;;;5019612;28;8950;-77
2022/08/23 14:13:18;;;;;;;;;0.00;0.00;;;;;;;;5007109;28;8999;-84
2022/08/23 14:15:46;;;;;;;;;0.00;0.00;;;;;;;;5024245;28;8864;-84
2022/08/23 14:18:15;;;;;;;;;0.00;0.00;;;;;;;;5027508;28;8982;-82
2022/08/23 14:20:42;;;;;;;;;0.00;0.00;;;;;;;;5023823;28;8892;-83
2022/08/23 14:23:10;;;;;;;;;0.00;0.00;;;;;;;;5023645;28;9921;-83
2022/08/23 14:25:37;;;;;;;;;0.00;0.00;;;;;;;;5027604;28;8884;-83
2022/08/23 14:28:04;;;;;;;;;0.00;0.00;;;;;;;;5025917;28;8896;-84
2022/08/23 14:30:34;;;;;;;;;0.00;0.00;;;;;;;;5022381;28;8833;-83
2022/08/23 14:33:03;;;;;;;;;0.00;0.00;;;;;;;;5018020;28;8889;-82
2022/08/23 14:35:32;;;;;;;;;0.00;0.00;;;;;;;;5021545;28;8905;-83
2022/08/23 14:38:01;;;;;;;;;0.20;0.00;;;;;;;;5019639;28;8873;-82
2022/08/23 14:40:29;;;;;;;;;0.00;0.00;;;;;;;;5017716;28;9595;-82
2022/08/23 14:42:56;;;;;;;;;0.00;0.00;;;;;;;;5017900;28;8904;-83
2022/08/23 14:45:23;;;;;;;;;0.00;0.00;;;;;;;;5022268;28;8873;-82
2022/08/23 14:47:51;;;;;;;;;0.00;0.00;;;;;;;;5004356;28;8853;-82
2022/08/23 14:50:18;;;;;;;;;0.00;0.00;;;;;;;;5020051;28;8856;-82
2022/08/23 14:52:47;;;;;;;;;0.00;0.00;;;;;;;;5009072;28;9014;-83
2022/08/23 14:55:15;;;;;;;;;0.00;0.00;;;;;;;;5020006;28;8931;-83
2022/08/23 14:57:42;;;;;;;;;0.00;0.00;;;;;;;;5017268;28;9021;-83
2022/08/23 15:00:13;;;;;;;;;0.00;0.00;;;;;;;;5020772;28;8869;-82
2022/08/23 15:02:43;;;;;;;;;0.00;0.00;;;;;;;;5019563;28;8885;-82
2022/08/23 15:05:11;;;;;;;;;0.00;0.00;;;;;;;;5021461;28;8864;-82
2022/08/23 15:07:39;;;;;;;;;0.00;0.00;;;;;;;;5013462;28;8877;-83
2022/08/23 15:10:10;;;;;;;;;0.00;0.00;;;;;;;;5019843;28;8867;-82
2022/08/23 15:12:37;;;;;;;;;0.00;0.00;;;;;;;;5016724;28;8872;-82
2022/08/23 15:15:06;;;;;;;;;0.00;0.00;;;;;;;;5016357;28;9604;-83
2022/08/23 15:17:37;;;;;;;;;0.00;0.00;;;;;;;;5016738;28;8931;-82
2022/08/23 15:20:05;;;;;;;;;0.00;0.00;;;;;;;;5020385;28;8887;-82
2022/08/23 15:22:33;;;;;;;;;0.80;0.00;;;;;;;;5016551;28;8962;-82
2022/08/23 15:25:00;;;;;;;;;0.00;0.00;;;;;;;;5020204;28;8884;-82
2022/08/23 15:27:31;;;;;;;;;0.00;0.00;;;;;;;;5015759;28;9007;-81
2022/08/23 15:29:59;;;;;;;;;0.00;0.00;;;;;;;;5019354;28;8893;-83